Weather observations for the past three days for
Springdale Municipal
| Date | Time (cdt) | Wind (kph) | Vis. (km) | Weather | Sky Cond. | Temperature (ºC) | Relative Humidity | Wind Chill (°C) | Heat Index (°C) | Pressure | Precipitation (cm) | ||||||
|---|---|---|---|---|---|---|---|---|---|---|---|---|---|---|---|---|---|
| Air | Dwpt | 6 hour | altimeter (cm) | sea level (mb) | 1 hr | 3 hr | 6 hr | ||||||||||
| Max. | Min. | ||||||||||||||||
| 06 | 20:48 | Calm | 16.09 | Fair | CLR | 12 | 11 | 94% | 76.28 | 0.0 | |||||||
| 06 | 19:48 | Calm | 16.09 | Partly Cloudy | SCT050 | 14 | 10 | 77% | 76.25 | 0.0 | |||||||
| 06 | 18:48 | NE 9 | 16.09 | Mostly Cloudy | SCT047 BKN050 | 15 | 9 | 68% | 76.25 | 0.0 | |||||||
| 06 | 17:48 | N 9 | 16.09 | Mostly Cloudy | FEW039 BKN047 | 15 | 9 | 68% | 76.2 | 0.0 | |||||||
| 06 | 16:48 | NE 15 G 24 | 16.09 | Mostly Cloudy | SCT039 BKN048 | 15 | 10 | 72% | 76.17 | 0.0 | |||||||
| 06 | 15:48 | E 9 | 16.09 | Partly Cloudy | SCT042 SCT120 | 14 | 9 | 72% | 76.2 | 0.0 | |||||||
| 06 | 14:48 | NE 15 | 16.09 | Partly Cloudy | SCT046 | 14 | 9 | 72% | 76.28 | 0.0 | |||||||
| 06 | 13:48 | N 15 | 16.09 | Partly Cloudy | SCT046 | 14 | 9 | 72% | 76.28 | 0.0 | |||||||
| 06 | 12:48 | N 20 | 16.09 | Mostly Cloudy | SCT030 BKN046 | 12 | 8 | 77% | 76.35 | 0.0 | |||||||
| 06 | 11:48 | N 17 G 26 | 16.09 | Mostly Cloudy | SCT025 BKN030 BKN044 | 12 | 9 | 82% | 76.38 | 0.0 | |||||||
| 06 | 10:48 | N 15 | 16.09 | Overcast | BKN022 OVC027 | 11 | 9 | 88% | 76.33 | 0.0 | |||||||
| 06 | 09:48 | NE 15 G 26 | 16.09 | Overcast | SCT019 SCT023 OVC042 | 10 | 10 | 100% | 8 | 76.3 | 0.0 | ||||||
| 06 | 08:48 | NE 15 G 28 | 16.09 | Overcast | BKN017 OVC024 | 9 | 9 | 100% | 7 | 76.3 | 0.0 | ||||||
| 06 | 07:48 | N 17 G 28 | 16.09 | Overcast | BKN017 OVC022 | 8 | 8 | 100% | 6 | 76.28 | 0.0 | ||||||
| 06 | 06:53 | N 19 | 16.09 | Overcast | FEW019 OVC040 | 8 | 8 | 100% | 5 | 76.2 | 0.0 | ||||||
| 06 | 06:49 | NE 13 | 16.09 | Overcast | OVC034 | 8 | 8 | 100% | 6 | 76.15 | 0.0 | ||||||
| 06 | 05:49 | NE 13 | 16.09 | Overcast | OVC034 | 8 | 8 | 100% | 6 | 76.15 | 0.0 | ||||||
| 05 | 20:48 | NE 15 | 8.05 | Fog/Mist | OVC007 | 9 | 9 | 100% | 7 | 75.74 | 0.0 | ||||||
| 05 | 19:48 | NE 22 | 11.27 | Overcast | OVC008 | 9 | 9 | 100% | 6 | 75.69 | 0.0 | ||||||
| 05 | 18:48 | N 17 G 28 | 3.22 | Fog/Mist | OVC006 | 10 | 10 | 100% | 8 | 75.64 | 0.0 | ||||||
| 05 | 17:48 | NE 19 G 35 | 6.44 | Fog/Mist | OVC006 | 12 | 12 | 100% | 75.54 | 0.0 | |||||||
| 05 | 16:48 | NE 20 G 28 | 9.66 | Fog/Mist | OVC006 | 13 | 13 | 100% | 75.54 | 0.0 | |||||||
| 05 | 15:48 | N 17 G 31 | 16.09 | Overcast | OVC007 | 14 | 14 | 100% | 75.51 | 0.0 | |||||||
| 05 | 14:48 | N 19 | 16.09 | Overcast | OVC007 | 15 | 15 | 100% | 75.54 | 0.0 | |||||||
| 05 | 13:48 | NE 17 G 33 | 16.09 | Overcast | BKN007 OVC014 | 18 | 18 | 100% | 75.46 | 0.0 | |||||||
| 05 | 12:48 | NE 7 | 16.09 | Overcast | OVC016 | 19 | 19 | 100% | 75.44 | 0.0 | |||||||
| 05 | 11:48 | NE 15 | 16.09 | Overcast | OVC016 | 19 | 19 | 100% | 75.44 | 0.0 | |||||||
| 05 | 10:48 | SE 7 G 20 | 16.09 | Overcast | OVC012 | 19 | 19 | 100% | 75.41 | 0.0 | |||||||
| 05 | 09:48 | E 17 | 16.09 | Partly Cloudy | FEW029 SCT040 SCT046 | 19 | 19 | 100% | 75.41 | 0.0 | |||||||
| 05 | 08:48 | SE 13 | 16.09 | Mostly Cloudy | BKN080 | 17 | 17 | 100% | 75.46 | 0.0 | |||||||
| 05 | 07:48 | S 11 G 26 | 16.09 | Overcast | SCT050 SCT065 OVC075 | 16 | 16 | 100% | 75.46 | 0.0 | |||||||
| 05 | 06:48 | SE 11 G 20 | 16.09 | Overcast | SCT042 BKN050 OVC065 | 16 | 16 | 100% | 75.44 | 0.0 | |||||||
| 05 | 05:48 | E 9 | 16.09 | Overcast | BKN033 OVC042 | 16 | 16 | 100% | 75.44 | 0.0 | |||||||
| 04 | 20:48 | S 13 | 16.09 | Fair | CLR | 21 | 16 | 73% | 75.51 | 0.0 | |||||||
| 04 | 19:48 | S 19 | 16.09 | Fair | CLR | 22 | 16 | 69% | 75.49 | 0.0 | |||||||
| 04 | 18:48 | S 35 | 16.09 | Fair and Breezy | CLR | 23 | 16 | 65% | 75.49 | 0.0 | |||||||
| 04 | 17:48 | S 19 G 41 | 16.09 | Fair | CLR | 25 | 17 | 61% | 26 | 75.49 | 0.0 | ||||||
| 04 | 16:48 | S 28 G 43 | 16.09 | Fair | CLR | 25 | 17 | 61% | 26 | 75.49 | 0.0 | ||||||
| 04 | 15:48 | S 28 G 43 | 16.09 | Fair | CLR | 25 | 17 | 61% | 26 | 75.54 | 0.0 | ||||||
| 04 | 14:48 | S 37 G 52 | 16.09 | Fair and Breezy | CLR | 25 | 16 | 57% | 26 | 75.62 | 0.0 | ||||||
| 04 | 13:48 | S 31 G 44 | 16.09 | Fair | CLR | 25 | 17 | 61% | 26 | 75.64 | 0.0 | ||||||
| 04 | 12:48 | S 35 G 46 | 16.09 | Fair and Breezy | CLR | 24 | 16 | 61% | 25 | 75.72 | 0.0 | ||||||
| 04 | 11:48 | SW 28 G 46 | 16.09 | Fair | CLR | 23 | 16 | 65% | 75.77 | 0.0 | |||||||
| 04 | 10:48 | SW 28 G 41 | 16.09 | Fair | CLR | 22 | 14 | 61% | 75.79 | 0.0 | |||||||
| 04 | 08:48 | SW 33 G 50 | 16.09 | Fair and Breezy | CLR | 20 | 12 | 60% | 75.84 | 0.0 | |||||||
| 04 | 07:48 | SW 24 | 16.09 | Fair | CLR | 18 | 12 | 68% | 75.87 | 0.0 | |||||||
| 04 | 06:48 | SW 22 | 16.09 | Fair | CLR | 17 | 11 | 68% | 75.84 | 0.0 | |||||||
| 04 | 05:48 | S 19 | 16.09 | Fair | CLR | 16 | 11 | 72% | 75.84 | 0.0 | |||||||
| Date | Time (cdt) | Wind (kph) | Vis. (km) | Weather | Sky Cond. | Air | Dwpt | Max. | Min. | Relative Humidity | Wind Chill (°C) | Heat Index (°C) | altimeter (cm) | sea level (mb) | 1 hr | 3 hr | 6 hr |
| 6 hour | |||||||||||||||||
| Temperature (ºC) | Pressure | Precipitation (cm) | |||||||||||||||